McGregor, Georgia
Current Conditions -  °F | °C
As of 3:15 PM on Monday 24 Nov 2014 (Local Time) from KCWV Reporting Station
Thunderstorm Thunderstorm  
Wind Chill: 68°   Ceiling: 4800
Heat Index: 68°   Visibility: 7mi
Dew Point: 68°   Wind: 7mph
Humidity: 100%   Direction: 180°S
Pressure: 29.86"   Gusts: NA
Location:  32.2794°N, 81.623°W
Report Text: KCWV 242015Z AUTO 18006KT 7SM VCTSDZ SCT034 BKN048 OVC055 20/20 A2986 RMK AO2 LTG DSNT NE SW AND W
Loading
Personal Weather Stations






























Interactive Weather Map New forecast layout! Learn more

10-Day Weather Forecast

Advertisements
Track Severe Weather on mobile